Time;durP1;ratioP1;P1;durP2;ratioP2;P2;SDS_P1;SDS_P2;PMS_P1;PMS_P2;Temp;Humidity;BMP_temperature;BMP_pressure;BME280_temperature;BME280_humidity;BME280_pressure;Samples;Min_cycle;Max_cycle;Signal;HPM_P1;HPM_P2
2021/11/21 00:03:21;;;;;;;;;;;;;;;;;;;;;
2021/11/21 00:06:57;;;;;;;34.60;17.00;;;;;;;7.67;93.79;100574.73;102049;1318;61326;-80
2021/11/21 00:13:07;;;;;;;36.20;18.70;;;;;;;7.63;93.78;100569.06;102278;1316;73382;-77
2021/11/21 00:16:35;;;;;;;46.60;19.30;;;;;;;7.62;93.90;100566.95;102505;1317;74029;-79
2021/11/21 00:20:03;;;;;;;35.40;16.70;;;;;;;7.61;93.90;100561.24;102311;1319;63331;-79
2021/11/21 00:26:12;;;;;;;38.20;15.90;;;;;;;7.58;93.51;100547.13;102417;1318;74990;-79
2021/11/21 00:28:57;;;;;;;37.20;18.10;;;;;;;7.56;93.43;100547.33;103124;1319;71708;-77
2021/11/21 00:32:18;;;;;;;35.10;17.60;;;;;;;7.54;93.37;100547.17;102354;1318;74117;-76
2021/11/21 00:35:45;;;;;;;34.20;16.40;;;;;;;7.53;92.99;100538.05;102247;1318;63093;-77
2021/11/21 00:39:12;;;;;;;32.00;15.10;;;;;;;7.53;93.04;100528.73;102328;1318;61736;-78
2021/11/21 00:42:18;;;;;;;;;;;;;;;;;;;;;
2021/11/21 00:44:48;;;;;;;35.60;18.10;;;;;;;7.54;93.22;100531.52;102249;1318;72505;-78
2021/11/21 00:47:48;;;;;;;26.20;12.10;;;;;;;7.53;93.18;100534.18;102878;1316;74032;-78
2021/11/21 00:50:26;;;;;;;37.60;15.90;;;;;;;7.53;93.13;100530.36;102600;1318;63107;-79
2021/11/21 00:53:11;;;;;;;35.20;17.80;;;;;;;7.52;93.39;100530.81;102775;1317;61238;-79
2021/11/21 00:55:39;;;;;;;32.90;15.80;;;;;;;7.52;93.65;100521.51;102758;1320;73903;-78
2021/11/21 00:58:12;;;;;;;35.90;16.80;;;;;;;7.51;93.79;100519.12;102120;1318;71515;-78
2021/11/21 01:01:16;;;;;;;29.60;14.30;;;;;;;7.49;93.78;100516.31;102424;1316;74081;-80
2021/11/21 01:04:19;;;;;;;;;;;;;;;;;;;;;
2021/11/21 01:07:30;;;;;;;32.20;14.80;;;;;;;7.48;94.16;100511.56;102943;1317;61309;-78
2021/11/21 01:10:42;;;;;;;;;;;;;;;;;;;;;
2021/11/21 01:13:18;;;;;;;32.90;15.60;;;;;;;7.45;94.49;100509.06;102275;1318;71445;-77
2021/11/21 01:16:46;;;;;;;32.50;15.40;;;;;;;7.44;94.71;100500.52;102425;1318;72932;-79
2021/11/21 01:19:43;;;;;;;;;;;;;;;;;;;;;
2021/11/21 01:22:44;;;;;;;31.30;15.40;;;;;;;7.44;94.21;100484.89;102742;1316;61439;-78
2021/11/21 01:25:47;;;;;;;26.20;12.70;;;;;;;7.44;94.05;100483.60;102537;1316;74879;-79
2021/11/21 01:28:45;;;;;;;36.10;15.80;;;;;;;7.45;93.96;100480.30;102441;1319;71586;-79
2021/11/21 01:31:47;;;;;;;;;;;;;;;;;;;;;
2021/11/21 01:34:56;;;;;;;26.10;13.00;;;;;;;7.49;93.45;100476.30;102606;1318;63109;-78
2021/11/21 01:37:54;;;;;;;28.20;14.10;;;;;;;7.50;93.52;100476.69;102529;1316;62931;-77
2021/11/21 01:40:53;;;;;;;29.30;13.70;;;;;;;7.50;93.34;100474.48;102040;1319;75155;-78
2021/11/21 01:44:03;;;;;;;29.20;14.20;;;;;;;7.50;93.00;100474.69;102483;1316;72671;-77
2021/11/21 01:46:50;;;;;;;;;;;;;;;;;;;;;
2021/11/21 01:49:31;;;;;;;25.50;11.50;;;;;;;7.51;93.44;100469.67;102402;1318;62243;-78
2021/11/21 01:52:16;;;;;;;29.10;13.90;;;;;;;7.50;93.14;100466.29;102269;1316;61815;-81
2021/11/21 01:55:35;;;;;;;28.50;14.60;;;;;;;7.50;92.90;100455.94;102438;1317;75101;-79
2021/11/21 01:58:54;;;;;;;21.10;12.10;;;;;;;7.49;92.88;100454.79;102279;1317;72475;-81
2021/11/21 02:01:23;;;;;;;33.60;15.70;;;;;;;7.47;92.86;100451.08;103100;1317;74055;-80
2021/11/21 02:07:35;;;;;;;;;;;;;;;;;;;;;
2021/11/21 02:10:57;;;;;;;;;;;;;;;;;;;;;
2021/11/21 02:14:08;;;;;;;;;;;;;;;;;;;;;
2021/11/21 02:16:52;;;;;;;26.40;13.10;;;;;;;7.45;92.97;100420.69;102282;1318;72980;-80
2021/11/21 02:20:12;;;;;;;;;;;;;;;;;;;;;
2021/11/21 02:23:16;;;;;;;25.80;12.10;;;;;;;7.43;93.23;100416.13;102481;1318;60751;-78
2021/11/21 02:26:28;;;;;;;28.40;14.10;;;;;;;7.43;93.03;100414.19;102443;1316;74893;-78
2021/11/21 02:29:28;;;;;;;;;;;;;;;;;;;;;
2021/11/21 02:32:37;;;;;;;28.80;13.80;;;;;;;7.43;92.88;100412.30;102109;1319;73074;-77
2021/11/21 02:36:05;;;;;;;30.00;12.80;;;;;;;7.43;93.00;100404.59;102454;1316;61981;-78
2021/11/21 02:39:10;;;;;;;27.50;13.10;;;;;;;7.44;92.85;100401.98;102245;1317;61234;-77
2021/11/21 02:42:17;;;;;;;26.20;11.10;;;;;;;7.44;92.90;100394.73;102316;1316;76414;-77
2021/11/21 02:45:15;;;;;;;;;;;;;;;;;;;;;
2021/11/21 02:48:23;;;;;;;24.10;12.90;;;;;;;7.45;92.86;100386.38;102195;1318;74300;-78
2021/11/21 02:51:32;;;;;;;28.60;13.60;;;;;;;7.46;92.90;100377.11;102457;1316;62267;-80
2021/11/21 02:54:39;;;;;;;30.40;15.10;;;;;;;7.46;92.68;100370.22;102026;1319;61836;-79
2021/11/21 02:57:46;;;;;;;;;;;;;;;7.47;92.73;100375.63;102203;1318;75023;-78
2021/11/21 03:00:47;;;;;;;28.20;12.50;;;;;;;7.46;92.90;100370.45;102420;1315;73569;-78
2021/11/21 03:04:17;;;;;;;24.20;11.60;;;;;;;7.46;93.02;100367.65;102307;1318;72285;-78
2021/11/21 03:06:54;;;;;;;29.00;14.00;;;;;;;7.46;92.86;100368.84;102288;1317;62594;-78
2021/11/21 03:09:54;;;;;;;25.50;12.70;;;;;;;7.47;92.88;100365.10;102172;1318;61386;-77
2021/11/21 03:13:04;;;;;;;;;;;;;;;;;;;;;
2021/11/21 03:15:44;;;;;;;24.40;11.90;;;;;;;7.45;93.03;100361.90;102370;1317;72602;-78
2021/11/21 03:19:12;;;;;;;26.90;13.50;;;;;;;7.44;93.62;100355.36;102481;1317;71669;-81
2021/11/21 03:22:31;;;;;;;;;;;;;;;;;;;;;
2021/11/21 03:25:53;;;;;;;26.50;13.70;;;;;;;7.38;94.30;100352.67;102229;1319;61805;-79
2021/11/21 03:29:05;;;;;;;26.40;10.50;;;;;;;7.37;94.55;100344.30;103063;1318;75012;-81
2021/11/21 03:32:15;;;;;;;;;;;;;;;;;;;;;
2021/11/21 03:35:34;;;;;;;25.50;12.10;;;;;;;7.38;94.56;100346.92;102785;1318;72828;-79
2021/11/21 03:38:29;;;;;;;23.70;12.20;;;;;;;7.37;94.51;100339.19;102575;1319;61417;-78
2021/11/21 03:41:36;;;;;;;16.90;8.20;;;;;;;7.38;94.38;100334.39;102234;1318;61598;-79
2021/11/21 03:44:52;;;;;;;;;;;;;;;;;;;;;
2021/11/21 03:48:21;;;;;;;23.60;10.50;;;;;;;7.40;94.33;100338.78;102207;1322;70868;-78
2021/11/21 03:51:18;;;;;;;;;;;;;;;;;;;;;
2021/11/21 03:53:45;;;;;;;24.00;11.50;;;;;;;7.42;94.06;100334.98;102970;1317;61770;-78
2021/11/21 03:56:26;;;;;;;;;;;;;;;;;;;;;
2021/11/21 03:59:41;;;;;;;;;;;;;;;;;;;;;
2021/11/21 04:03:01;;;;;;;;;;;;;;;;;;;;;
2021/11/21 04:06:30;;;;;;;;;;;;;;;;;;;;;
2021/11/21 04:09:43;;;;;;;21.70;11.10;;;;;;;7.35;95.07;100323.23;102273;1317;62528;-79
2021/11/21 04:12:42;;;;;;;;;;;;;;;;;;;;;
2021/11/21 04:16:10;;;;;;;24.80;11.30;;;;;;;7.31;95.48;100315.20;102349;1318;74932;-79
2021/11/21 04:19:08;;;;;;;;;;;;;;;;;;;;;
2021/11/21 04:22:30;;;;;;;;;;;;;;;;;;;;;
2021/11/21 04:25:58;;;;;;;21.70;10.70;;;;;;;7.28;96.22;100316.20;102060;1322;62028;-79
2021/11/21 04:28:50;;;;;;;23.00;11.20;;;;;;;7.26;96.50;100308.64;102550;1318;61674;-79
2021/11/21 04:31:25;;;;;;;21.00;10.30;;;;;;;7.25;96.48;100306.30;102841;1318;75089;-79
2021/11/21 04:33:57;;;;;;;19.40;10.10;;;;;;;7.26;96.76;100306.39;102865;1318;71747;-79
2021/11/21 04:36:35;;;;;;;22.30;11.10;;;;;;;7.25;96.59;100301.66;102532;1315;72966;-78
2021/11/21 04:39:08;;;;;;;21.70;9.60;;;;;;;7.25;96.65;100294.91;102571;1317;62652;-79
2021/11/21 04:42:02;;;;;;;20.40;10.40;;;;;;;7.25;96.62;100295.65;102638;1316;61334;-78
2021/11/21 04:44:51;;;;;;;24.30;9.00;;;;;;;7.25;96.60;100294.86;102630;1318;73618;-80
2021/11/21 04:48:19;;;;;;;23.80;11.00;;;;;;;7.27;96.53;100289.45;102313;1317;71366;-79
2021/11/21 04:51:05;;;;;;;21.20;10.90;;;;;;;7.28;96.09;100289.61;102690;1316;74128;-79
2021/11/21 04:54:01;;;;;;;23.30;11.30;;;;;;;7.30;95.69;100287.19;102468;1316;63012;-79
2021/11/21 04:56:52;;;;;;;;;;;;;;;;;;;;;
2021/11/21 04:59:32;;;;;;;23.30;12.00;;;;;;;7.33;95.40;100271.30;102713;1316;73861;-79
2021/11/21 05:02:18;;;;;;;21.40;10.40;;;;;;;7.34;95.72;100267.91;102781;1316;71452;-80
2021/11/21 05:05:35;;;;;;;;;;;;;;;;;;;;;
2021/11/21 05:08:23;;;;;;;19.30;9.90;;;;;;;7.36;95.45;100262.64;102429;1316;62310;-79
2021/11/21 05:11:13;;;;;;;18.20;9.40;;;;;;;7.36;94.97;100256.77;102630;1315;61633;-79
2021/11/21 05:14:31;;;;;;;;;;;;;;;;;;;;;
2021/11/21 05:17:19;;;;;;;18.40;9.20;;;;;;;7.38;95.02;100261.33;102141;1316;72001;-79
2021/11/21 05:19:59;;;;;;;;;;;;;;;;;;;;;
2021/11/21 05:23:17;;;;;;;;;;;;;;;;;;;;;
2021/11/21 05:26:36;;;;;;;17.00;8.40;;;;;;;7.40;94.71;100258.82;102193;1317;61684;-80
2021/11/21 05:29:07;;;;;;;20.40;10.50;;;;;;;7.41;94.80;100248.33;102369;1318;74869;-77
2021/11/21 05:31:34;;;;;;;22.30;10.50;;;;;;;7.41;94.90;100243.61;102350;1318;71597;-78
2021/11/21 05:34:37;;;;;;;21.40;11.10;;;;;;;7.41;94.93;100238.36;102520;1316;73007;-80
2021/11/21 05:37:48;;;;;;;;;;;;;;;;;;;;;
2021/11/21 05:41:01;;;;;;;14.80;6.70;;;;;;;7.42;95.05;100226.79;102434;1318;61640;-78
2021/11/21 05:44:01;;;;;;;;;;;;;;;;;;;;;
2021/11/21 05:46:31;;;;;;;17.80;9.80;;;;;;;7.39;95.19;100220.22;102699;1316;71440;-78
2021/11/21 05:49:38;;;;;;;18.40;8.40;;;;;;;7.39;95.32;100222.20;102692;1316;73764;-79
2021/11/21 05:52:38;;;;;;;;;;;;;;;;;;;;;
2021/11/21 05:55:28;;;;;;;20.30;10.10;;;;;;;7.39;95.35;100218.64;102578;1317;61641;-77
2021/11/21 05:57:58;;;;;;;17.20;9.20;;;;;;;7.40;95.32;100224.21;102442;1316;76033;-76
2021/11/21 06:00:38;;;;;;;;;;;;;;;;;;;;;
2021/11/21 06:04:11;;;;;;;19.80;9.50;;;;;;;7.41;95.26;100227.32;102193;1317;72940;-76
2021/11/21 06:06:39;;;;;;;19.80;10.00;;;;;;;7.40;95.26;100229.98;102136;1319;62300;-77
2021/11/21 06:09:27;;;;;;;18.00;9.50;;;;;;;7.40;95.49;100226.69;102323;1317;61178;-78
2021/11/21 06:12:11;;;;;;;;;;;;;;;;;;;;;
2021/11/21 06:14:41;;;;;;;20.50;9.40;;;;;;;7.36;96.41;100231.30;102458;1315;71391;-76
2021/11/21 06:17:19;;;;;;;15.40;7.80;;;;;;;7.31;97.19;100229.70;102475;1315;74020;-77
2021/11/21 06:19:58;;;;;;;19.90;10.70;;;;;;;7.25;98.25;100225.81;102536;1315;61414;-80
2021/11/21 06:22:37;;;;;;;24.00;11.10;;;;;;;7.19;98.88;100229.62;102594;1315;62332;-78
2021/11/21 06:25:58;;;;;;;24.80;12.10;;;;;;;7.12;99.80;100232.13;98736;1316;5470405;-79
2021/11/21 06:28:53;;;;;;;22.00;10.80;;;;;;;7.06;100.00;100231.89;102476;1315;71702;-77
2021/11/21 06:31:23;;;;;;;15.90;8.90;;;;;;;7.02;100.00;100235.52;102574;1315;72935;-77
2021/11/21 06:33:50;;;;;;;21.80;11.70;;;;;;;6.98;100.00;100231.73;102446;1315;62715;-77
2021/11/21 06:36:26;;;;;;;21.30;10.60;;;;;;;6.94;100.00;100233.45;102203;1323;61260;-77
2021/11/21 06:39:37;;;;;;;18.20;9.80;;;;;;;6.90;100.00;100229.63;102356;1316;74993;-79
2021/11/21 06:42:40;;;;;;;23.80;12.60;;;;;;;6.88;100.00;100228.51;102254;1319;72485;-77
2021/11/21 06:45:26;;;;;;;24.60;12.00;;;;;;;6.88;100.00;100230.41;102251;1317;72729;-77
2021/11/21 06:48:24;;;;;;;;;;;;;;;;;;;;;
2021/11/21 06:51:30;;;;;;;25.10;12.20;;;;;;;6.89;100.00;100228.25;102289;1323;61317;-80
2021/11/21 06:54:38;;;;;;;;;;;;;;;6.90;100.00;100225.96;102461;1316;74899;-77
2021/11/21 06:57:34;;;;;;;;;;;;;;;;;;;;;
2021/11/21 07:00:30;;;;;;;20.30;10.30;;;;;;;6.90;100.00;100222.59;102309;1316;74105;-79
2021/11/21 07:04:00;;;;;;;21.90;9.90;;;;;;;6.89;100.00;100225.86;102140;1322;63522;-78
2021/11/21 07:07:20;;;;;;;19.70;9.30;;;;;;;6.90;100.00;100226.89;102142;1316;62339;-78
2021/11/21 07:10:19;;;;;;;;;;;;;;;;;;;;;
2021/11/21 07:12:48;;;;;;;15.90;9.40;;;;;;;6.90;100.00;100219.34;102092;1317;71488;-78
2021/11/21 07:15:20;;;;;;;20.70;10.60;;;;;;;6.91;100.00;100225.02;102275;1322;73935;-78
2021/11/21 07:18:02;;;;;;;;;;;;;;;;;;;;;
2021/11/21 07:20:37;;;;;;;18.60;9.40;;;;;;;6.96;100.00;100230.16;102330;1316;61193;-77
2021/11/21 07:23:20;;;;;;;;;;;;;;;;;;;;;
2021/11/21 07:26:38;;;;;;;;;;;;;;;;;;;;;
2021/11/21 07:29:41;;;;;;;16.50;8.60;;;;;;;7.00;100.00;100231.45;101984;1320;74011;-77
2021/11/21 07:32:32;;;;;;;14.10;7.00;;;;;;;7.02;100.00;100234.59;102150;1319;62106;-78
2021/11/21 07:36:00;;;;;;;17.30;9.00;;;;;;;7.03;100.00;100233.24;102394;1320;61417;-79
2021/11/21 07:38:45;;;;;;;16.30;7.10;;;;;;;7.06;100.00;100234.30;102216;1317;75939;-78
2021/11/21 07:41:34;;;;;;;18.00;8.60;;;;;;;7.09;100.00;100230.16;102508;1316;72525;-79
2021/11/21 07:44:11;;;;;;;15.10;7.80;;;;;;;7.11;100.00;100234.27;102526;1321;74258;-78
2021/11/21 07:47:23;;;;;;;15.30;7.30;;;;;;;7.15;100.00;100239.75;102195;1325;62221;-79
2021/11/21 07:50:00;;;;;;;16.40;7.70;;;;;;;7.19;100.00;100239.84;101979;1325;61319;-79
2021/11/21 07:52:35;;;;;;;13.80;7.20;;;;;;;7.21;100.00;100243.11;102287;1327;76229;-78
2021/11/21 07:55:19;;;;;;;;;;;;;;;;;;;;;
2021/11/21 07:57:49;;;;;;;11.80;6.00;;;;;;;7.26;100.00;100250.27;101667;1327;74893;-78
2021/11/21 08:00:59;;;;;;;11.50;5.90;;;;;;;7.27;100.00;100256.34;101793;1327;63002;-78
2021/11/21 08:04:17;;;;;;;;;;;;;;;;;;;;;
2021/11/21 08:06:53;;;;;;;11.60;6.10;;;;;;;7.30;100.00;100255.27;101747;1322;75044;-78
2021/11/21 08:09:40;;;;;;;9.20;5.20;;;;;;;7.33;100.00;100252.58;101802;1323;71432;-78
2021/11/21 08:12:39;;;;;;;10.60;5.40;;;;;;;7.36;100.00;100253.13;101725;1322;72207;-78
2021/11/21 08:15:38;;;;;;;11.30;6.30;;;;;;;7.39;100.00;100258.62;102052;1322;63578;-79
2021/11/21 08:18:17;;;;;;;10.50;5.40;;;;;;;7.44;100.00;100259.71;102534;1321;60677;-80
2021/11/21 08:21:04;;;;;;;7.90;3.50;;;;;;;7.47;100.00;100266.17;102263;1317;75169;-77
2021/11/21 08:23:34;;;;;;;10.60;4.50;;;;;;;7.50;100.00;100263.10;102236;1317;72264;-77
2021/11/21 08:26:08;;;;;;;8.20;4.60;;;;;;;7.54;100.00;100263.96;102181;1317;72963;-77
2021/11/21 08:28:53;;;;;;;8.20;4.60;;;;;;;7.59;100.00;100265.05;102315;1321;63016;-78
2021/11/21 08:31:23;;;;;;;9.00;4.90;;;;;;;7.65;100.00;100264.22;102234;1316;62321;-78
2021/11/21 08:33:50;;;;;;;8.60;5.00;;;;;;;7.68;100.00;100265.30;102166;1317;76063;-77
2021/11/21 08:36:19;;;;;;;7.90;4.40;;;;;;;7.70;100.00;100262.86;102208;1316;73215;-76
2021/11/21 08:38:54;;;;;;;8.10;4.80;;;;;;;7.71;99.99;100264.84;102272;1318;74213;-77
2021/11/21 08:41:21;;;;;;;8.30;4.20;;;;;;;7.72;100.00;100271.61;102179;1317;63510;-76
2021/11/21 08:43:47;;;;;;;8.80;4.20;;;;;;;7.71;99.92;100265.38;102188;1318;61513;-75
2021/11/21 08:46:20;;;;;;;7.90;4.30;;;;;;;7.71;99.81;100270.61;102201;1317;76083;-75
2021/11/21 08:48:47;;;;;;;7.20;3.60;;;;;;;7.72;99.88;100271.05;102312;1315;71480;-75
2021/11/21 08:51:19;;;;;;;7.00;3.80;;;;;;;7.73;99.84;100272.52;102159;1321;72908;-75
2021/11/21 08:54:09;;;;;;;7.30;3.50;;;;;;;7.74;99.85;100271.73;102211;1317;62784;-75
2021/11/21 08:56:38;;;;;;;8.50;3.90;;;;;;;7.73;99.98;100270.60;102228;1317;61929;-75
2021/11/21 08:59:07;;;;;;;8.40;4.60;;;;;;;7.68;99.86;100275.13;102232;1316;76045;-75
2021/11/21 09:01:34;;;;;;;8.90;3.70;;;;;;;7.67;99.94;100278.73;102146;1316;72482;-75
2021/11/21 09:04:06;;;;;;;8.50;3.70;;;;;;;7.67;99.96;100282.84;102217;1316;72826;-76
2021/11/21 09:06:53;;;;;;;6.60;3.60;;;;;;;7.67;100.00;100283.49;102199;1315;62996;-78
2021/11/21 09:09:19;;;;;;;8.20;3.50;;;;;;;7.67;100.00;100283.06;102135;1318;61231;-77
2021/11/21 09:11:46;;;;;;;7.30;4.10;;;;;;;7.66;100.00;100290.16;102278;1317;75129;-76
2021/11/21 09:14:35;;;;;;;;;;;;;;;;;;;;;
2021/11/21 09:17:01;;;;;;;9.80;4.20;;;;;;;7.65;100.00;100291.31;102106;1317;72742;-76
2021/11/21 09:19:38;;;;;;;;;;;;;;;;;;;;;
2021/11/21 09:22:14;;;;;;;9.70;4.50;;;;;;;7.64;100.00;100294.85;102165;1318;61235;-79
2021/11/21 09:24:54;;;;;;;;;;;;;;;;;;;;;
2021/11/21 09:27:24;;;;;;;7.00;3.40;;;;;;;7.63;100.00;100296.30;102275;1316;70754;-76
2021/11/21 09:30:11;;;;;;;6.30;3.10;;;;;;;7.63;100.00;100288.44;102046;1316;74772;-77
2021/11/21 09:33:11;;;;;;;9.00;4.60;;;;;;;7.64;100.00;100293.59;101985;1316;63433;-76
2021/11/21 09:35:57;;;;;;;8.40;3.80;;;;;;;7.65;100.00;100292.57;102120;1316;61865;-77
2021/11/21 09:38:43;;;;;;;;;;;;;;;;;;;;;
2021/11/21 09:41:33;;;;;;;6.10;3.00;;;;;;;7.73;100.00;100295.77;101684;1321;71516;-77
2021/11/21 09:44:03;;;;;;;7.40;3.90;;;;;;;7.80;100.00;100293.96;102040;1320;73979;-77
2021/11/21 09:46:32;;;;;;;5.20;2.30;;;;;;;7.83;100.00;100296.09;102037;1318;62219;-77
2021/11/21 09:49:20;;;;;;;11.90;2.90;;;;;;;7.85;100.00;100293.83;101900;1322;61409;-77
2021/11/21 09:51:55;;;;;;;6.60;1.80;;;;;;;7.86;100.00;100290.36;101890;1319;74927;-79
2021/11/21 09:54:31;;;;;;;6.90;1.70;;;;;;;7.87;100.00;100290.40;102000;1318;72911;-76
2021/11/21 09:57:14;;;;;;;3.70;1.90;;;;;;;7.88;100.00;100290.76;101897;1319;73937;-77
2021/11/21 09:59:56;;;;;;;4.90;2.20;;;;;;;7.91;99.98;100285.51;101926;1319;61475;-77
2021/11/21 10:02:31;;;;;;;3.40;1.50;;;;;;;7.98;99.97;100283.02;101896;1318;62096;-77
2021/11/21 10:05:39;;;;;;;2.60;1.60;;;;;;;8.07;99.02;100282.04;102037;1319;74670;-76
2021/11/21 10:08:15;;;;;;;3.00;1.60;;;;;;;8.20;98.29;100276.92;101783;1319;72828;-76
2021/11/21 10:11:01;;;;;;;3.20;1.30;;;;;;;8.27;97.23;100279.52;101911;1319;73158;-75
2021/11/21 10:13:40;;;;;;;2.10;1.00;;;;;;;8.33;96.71;100278.14;102055;1316;62375;-76
2021/11/21 10:16:41;;;;;;;4.70;1.40;;;;;;;8.39;97.13;100283.84;101932;1320;61188;-75
2021/11/21 10:19:13;;;;;;;4.20;2.10;;;;;;;8.40;97.15;100281.80;102293;1315;76089;-76
2021/11/21 10:22:09;;;;;;;;;;;;;;;;;;;;;
2021/11/21 10:24:47;;;;;;;;;;;;;;;8.42;96.98;100281.41;102044;1320;73164;-77
2021/11/21 10:27:19;;;;;;;5.00;2.40;;;;;;;8.44;97.12;100281.30;101951;1319;62067;-76
2021/11/21 10:29:49;;;;;;;7.20;3.20;;;;;;;8.46;96.96;100281.98;102726;1317;61411;-76
2021/11/21 10:32:42;;;;;;;6.70;2.60;;;;;;;8.48;97.00;100281.35;104725;1318;75938;-76
2021/11/21 10:35:26;;;;;;;6.00;2.80;;;;;;;8.51;96.67;100278.17;101991;1317;71550;-76
2021/11/21 10:37:57;;;;;;;6.80;3.80;;;;;;;8.54;96.94;100282.45;102134;1317;72921;-77
2021/11/21 10:41:05;;;;;;;6.80;3.20;;;;;;;8.55;97.55;100278.52;102242;1316;63300;-77
2021/11/21 10:43:48;;;;;;;6.10;3.40;;;;;;;8.58;97.45;100275.16;102044;1318;61608;-77
2021/11/21 10:46:27;;;;;;;8.80;4.90;;;;;;;8.62;97.16;100271.44;102056;1316;73861;-78
2021/11/21 10:49:11;;;;;;;10.60;4.40;;;;;;;8.66;97.09;100267.03;102244;1317;72634;-78
2021/11/21 10:52:40;;;;;;;9.40;3.80;;;;;;;8.72;96.85;100263.73;102190;1317;73229;-77
2021/11/21 10:55:14;;;;;;;7.00;3.60;;;;;;;8.71;96.40;100267.17;101957;1319;63454;-76
2021/11/21 10:57:52;;;;;;;12.00;4.80;;;;;;;8.69;96.00;100272.20;103098;1317;61570;-77
2021/11/21 11:00:28;;;;;;;8.20;4.40;;;;;;;8.72;96.61;100270.60;102239;1316;73901;-76
2021/11/21 11:03:28;;;;;;;8.20;3.70;;;;;;;8.75;96.24;100270.12;102858;1316;71503;-76
2021/11/21 11:06:21;;;;;;;7.30;3.70;;;;;;;8.76;96.14;100268.90;101888;1319;73123;-77
2021/11/21 11:08:55;;;;;;;9.00;3.50;;;;;;;8.80;96.21;100271.85;102206;1316;63258;-77
2021/11/21 11:11:27;;;;;;;7.40;3.80;;;;;;;8.83;95.97;100268.33;102064;1315;61672;-77
2021/11/21 11:13:57;;;;;;;10.60;4.00;;;;;;;8.80;94.67;100271.13;102083;1316;74986;-76
2021/11/21 11:16:49;;;;;;;7.30;3.90;;;;;;;8.79;95.04;100267.89;102138;1316;71378;-77
2021/11/21 11:19:19;;;;;;;6.00;3.10;;;;;;;8.85;95.47;100270.90;102022;1316;72938;-77
2021/11/21 11:21:52;;;;;;;8.70;4.20;;;;;;;8.90;95.13;100273.52;102029;1319;61715;-77
2021/11/21 11:24:52;;;;;;;5.80;3.00;;;;;;;8.93;95.27;100268.89;102070;1317;61403;-74
2021/11/21 11:27:35;;;;;;;10.30;4.30;;;;;;;8.96;95.00;100270.99;102027;1316;75961;-77
2021/11/21 11:30:05;;;;;;;7.10;3.40;;;;;;;9.02;94.28;100271.98;102171;1316;71457;-76
2021/11/21 11:33:13;;;;;;;;;;;;;;;;;;;;;
2021/11/21 11:35:53;;;;;;;10.30;4.70;;;;;;;9.23;93.18;100278.23;101884;1321;61186;-75
2021/11/21 11:38:57;;;;;;;6.10;3.10;;;;;;;9.29;92.05;100282.31;102070;1316;62216;-77
2021/11/21 11:41:53;;;;;;;11.10;3.90;;;;;;;9.30;91.10;100285.52;102098;1316;76983;-77
2021/11/21 11:45:12;;;;;;;8.20;3.00;;;;;;;9.30;90.45;100287.32;102048;1316;72957;-77
2021/11/21 11:48:21;;;;;;;9.00;3.20;;;;;;;9.29;90.53;100284.08;101766;1317;73001;-76
2021/11/21 11:50:53;;;;;;;8.50;3.30;;;;;;;9.22;89.62;100290.54;101998;1316;63513;-76
2021/11/21 11:54:11;;;;;;;;;;;;;;;;;;;;;
2021/11/21 11:57:00;;;;;;;9.50;4.50;;;;;;;9.12;90.70;100284.63;102223;1316;75570;-76
2021/11/21 11:59:37;;;;;;;8.90;3.20;;;;;;;9.10;91.02;100287.11;102243;1317;72649;-76
2021/11/21 12:02:37;;;;;;;11.40;4.00;;;;;;;9.08;91.18;100285.41;102017;1316;72980;-76
2021/11/21 12:05:31;;;;;;;7.50;3.60;;;;;;;9.10;91.20;100286.20;102093;1317;61909;-77
2021/11/21 12:08:32;;;;;;;9.00;3.50;;;;;;;9.18;91.23;100285.67;102000;1318;61850;-77
2021/11/21 12:11:38;;;;;;;7.70;2.90;;;;;;;9.24;90.93;100288.67;101780;1318;75081;-76
2021/11/21 12:14:37;;;;;;;9.60;3.60;;;;;;;9.29;90.62;100290.52;102095;1315;70303;-77
2021/11/21 12:17:08;;;;;;;9.60;2.90;;;;;;;9.30;90.38;100288.73;102071;1319;72493;-77
2021/11/21 12:19:47;;;;;;;10.50;3.20;;;;;;;9.22;90.31;100291.16;102109;1316;61257;-76
2021/11/21 12:23:00;;;;;;;10.70;3.40;;;;;;;9.17;90.90;100286.64;102192;1317;61429;-77
2021/11/21 12:25:30;;;;;;;12.30;3.00;;;;;;;9.09;90.97;100285.63;102091;1318;74949;-76
2021/11/21 12:28:05;;;;;;;9.50;2.70;;;;;;;9.03;90.71;100284.02;102066;1317;72501;-77
2021/11/21 12:30:45;;;;;;;;;;;;;;;;;;;;;
2021/11/21 12:33:43;;;;;;;11.50;4.00;;;;;;;8.96;90.37;100287.55;102062;1317;61435;-77
2021/11/21 12:36:20;;;;;;;11.00;3.30;;;;;;;8.97;90.25;100284.65;102037;1317;62062;-77
2021/11/21 12:38:54;;;;;;;6.30;2.20;;;;;;;9.03;90.24;100279.82;102125;1315;76113;-78
2021/11/21 12:41:21;;;;;;;11.30;2.00;;;;;;;9.09;88.17;100281.63;102079;1319;71595;-77
2021/11/21 12:43:50;;;;;;;7.90;2.40;;;;;;;9.10;86.15;100278.81;102089;1316;73124;-77
2021/11/21 12:46:21;;;;;;;5.70;2.00;;;;;;;9.11;86.23;100281.02;102092;1318;61338;-77
2021/11/21 12:49:21;;;;;;;;;;;;;;;;;;;;;
2021/11/21 12:52:41;;;;;;;5.20;1.90;;;;;;;9.09;85.24;100278.40;102059;1316;74577;-78
2021/11/21 12:56:08;;;;;;;;;;;;;;;;;;;;;
2021/11/21 12:59:38;;;;;;;4.90;1.50;;;;;;;9.87;80.34;100278.40;102223;1316;74222;-77
2021/11/21 13:02:34;;;;;;;9.10;2.50;;;;;;;9.83;79.37;100276.77;101789;1316;61465;-77
2021/11/21 13:05:20;;;;;;;8.50;2.20;;;;;;;9.86;79.14;100280.81;102178;1317;61386;-78
2021/11/21 13:08:03;;;;;;;8.80;1.90;;;;;;;10.10;78.91;100282.41;102133;1316;74047;-79
2021/11/21 13:10:36;;;;;;;7.60;1.90;;;;;;;10.08;78.73;100284.40;102060;1318;71455;-78
2021/11/21 13:13:09;;;;;;;12.00;3.00;;;;;;;9.98;77.97;100287.90;102091;1318;73007;-79
2021/11/21 13:15:58;;;;;;;7.50;2.70;;;;;;;9.87;77.59;100283.36;102108;1321;61372;-77
2021/11/21 13:18:27;;;;;;;6.20;1.40;;;;;;;9.74;77.58;100282.23;102075;1317;61391;-77
2021/11/21 13:21:20;;;;;;;7.60;1.70;;;;;;;9.89;77.63;100281.60;102175;1319;76462;-78
2021/11/21 13:24:06;;;;;;;8.60;1.60;;;;;;;10.58;77.05;100281.11;102266;1316;71303;-78
2021/11/21 13:26:33;;;;;;;4.10;1.10;;;;;;;11.36;72.98;100284.91;102318;1316;72889;-79
2021/11/21 13:29:02;;;;;;;5.20;1.60;;;;;;;11.55;71.63;100284.49;102025;1318;61658;-78
2021/11/21 13:31:47;;;;;;;10.60;2.10;;;;;;;11.91;70.26;100286.92;102066;1317;61328;-78
2021/11/21 13:34:18;;;;;;;9.50;2.10;;;;;;;12.70;67.58;100282.63;102173;1316;74962;-78
2021/11/21 13:36:58;;;;;;;7.70;2.20;;;;;;;13.59;63.81;100285.23;102520;1315;71662;-77
2021/11/21 13:39:31;;;;;;;4.00;1.20;;;;;;;14.39;59.78;100286.77;102541;1317;72938;-83
2021/11/21 13:42:05;;;;;;;8.00;1.50;;;;;;;14.78;57.72;100283.02;102642;1318;62311;-80
2021/11/21 13:44:42;;;;;;;6.80;1.40;;;;;;;14.59;57.54;100288.67;102531;1322;61177;-78
2021/11/21 13:47:23;;;;;;;10.40;1.70;;;;;;;14.26;58.04;100291.75;102326;1319;76004;-80
2021/11/21 13:49:54;;;;;;;4.00;1.30;;;;;;;13.59;60.09;100291.65;102214;1317;71599;-79
2021/11/21 13:52:30;;;;;;;4.50;1.80;;;;;;;13.37;60.54;100291.92;102263;1318;74280;-77
2021/11/21 13:55:06;;;;;;;8.10;1.90;;;;;;;13.07;60.36;100294.37;102166;1317;61308;-78
2021/11/21 13:57:40;;;;;;;6.60;1.30;;;;;;;12.50;62.06;100290.73;102259;1318;61261;-78
2021/11/21 14:00:24;;;;;;;5.70;1.50;;;;;;;12.04;63.64;100293.45;102486;1318;74965;-78
2021/11/21 14:03:17;;;;;;;8.10;2.80;;;;;;;11.59;65.68;100299.08;102319;1318;71409;-79
2021/11/21 14:05:47;;;;;;;4.00;1.60;;;;;;;11.20;67.51;100296.84;102227;1316;72898;-77
2021/11/21 14:08:49;;;;;;;3.80;1.00;;;;;;;11.05;68.51;100302.19;102034;1314;62876;-77
2021/11/21 14:11:30;;;;;;;;;;;;;;;;;;;;;
2021/11/21 14:14:12;;;;;;;8.70;1.70;;;;;;;10.60;69.64;100310.20;102302;1315;75030;-77
2021/11/21 14:16:43;;;;;;;4.70;1.20;;;;;;;10.25;70.52;100316.18;102207;1313;70201;-77
2021/11/21 14:19:35;;;;;;;7.30;1.50;;;;;;;9.95;71.71;100317.77;102151;1315;73179;-77
2021/11/21 14:22:59;;;;;;;;;;;;;;;;;;;;;
2021/11/21 14:25:39;;;;;;;6.80;1.50;;;;;;;9.46;73.79;100328.70;102144;1318;528346;-79
2021/11/21 14:28:13;;;;;;;5.30;1.80;;;;;;;9.24;74.77;100324.30;102314;1318;75251;-78
2021/11/21 14:31:10;;;;;;;11.20;2.00;;;;;;;9.08;75.38;100325.83;102235;1318;71305;-78
2021/11/21 14:34:41;;;;;;;6.20;2.20;;;;;;;8.92;76.44;100322.17;102723;1318;71232;-80
2021/11/21 14:37:16;;;;;;;6.40;1.20;;;;;;;8.74;77.45;100331.09;102640;1321;63169;-80
2021/11/21 14:39:50;;;;;;;6.90;1.70;;;;;;;8.61;78.12;100323.86;102666;1319;61305;-80
2021/11/21 14:42:24;;;;;;;2.70;1.20;;;;;;;8.51;78.48;100329.65;102275;1321;75152;-78